Time,TemperatureF,DewpointF,PressureIn,WindDirection,WindDirectionDegrees,WindSpeedMPH,WindSpeedGustMPH,Humidity,HourlyPrecipIn,Conditions,Clouds,dailyrainin,SoftwareType,DateUTC
2013-02-22 01:02:00,38.0,35.9,30.15,SSE,158,0.0,-999.0,92,0.00,,,0.00,Wunderground v.1.15,2013-02-22 09:02:00,
2013-02-22 01:07:00,38.0,35.9,30.15,SSE,158,0.0,-999.0,92,0.00,,,0.00,Wunderground v.1.15,2013-02-22 09:07:00,
2013-02-22 01:12:00,38.0,35.9,30.15,SSE,158,0.0,-999.0,92,0.00,,,0.00,Wunderground v.1.15,2013-02-22 09:12:00,
2013-02-22 01:17:00,36.2,33.8,30.15,N/A,-737280,0.0,-999.0,91,0.00,,,0.00,Wunderground v.1.15,2013-02-22 09:17:00,
2013-02-22 01:22:00,36.2,33.8,30.15,N/A,-737280,0.0,-999.0,91,0.00,,,0.00,Wunderground v.1.15,2013-02-22 09:22:00,
2013-02-22 01:27:00,36.2,33.8,30.15,N/A,-737280,0.0,-999.0,91,0.00,,,0.00,Wunderground v.1.15,2013-02-22 09:27:00,
2013-02-22 01:32:00,36.2,33.8,30.15,N/A,-737280,0.0,-999.0,91,0.00,,,0.00,Wunderground v.1.15,2013-02-22 09:32:00,
2013-02-22 01:37:00,36.2,33.8,30.15,N/A,-737280,0.0,-999.0,91,0.00,,,0.00,Wunderground v.1.15,2013-02-22 09:37:00,
2013-02-22 01:42:00,36.2,33.8,30.15,N/A,-737280,0.0,-999.0,91,0.00,,,0.00,Wunderground v.1.15,2013-02-22 09:42:00,
2013-02-22 01:47:00,36.3,33.9,30.15,N/A,-737280,0.0,-999.0,91,0.00,,,0.00,Wunderground v.1.15,2013-02-22 09:47:00,
2013-02-22 01:52:00,36.3,33.9,30.15,N/A,-737280,0.0,-999.0,91,0.00,,,0.00,Wunderground v.1.15,2013-02-22 09:52:00,
2013-02-22 01:57:00,36.3,33.9,30.15,N/A,-737280,0.0,-999.0,91,0.00,,,0.00,Wunderground v.1.15,2013-02-22 09:57:00,
2013-02-22 02:02:00,36.3,33.9,30.15,N/A,-737280,0.0,-999.0,91,0.00,,,0.00,Wunderground v.1.15,2013-02-22 10:02:00,
2013-02-22 02:07:00,36.3,33.9,30.15,N/A,-737280,0.0,-999.0,91,0.00,,,0.00,Wunderground v.1.15,2013-02-22 10:07:00,
2013-02-22 02:12:00,36.3,33.9,30.15,N/A,-737280,0.0,-999.0,91,0.00,,,0.00,Wunderground v.1.15,2013-02-22 10:12:00,
2013-02-22 02:17:00,34.9,32.5,30.15,N/A,-737280,0.0,-999.0,91,0.00,,,0.00,Wunderground v.1.15,2013-02-22 10:17:00,
2013-02-22 02:22:00,34.9,32.5,30.15,N/A,-737280,0.0,-999.0,91,0.00,,,0.00,Wunderground v.1.15,2013-02-22 10:22:00,
2013-02-22 02:27:00,34.9,32.5,30.15,N/A,-737280,0.0,-999.0,91,0.00,,,0.00,Wunderground v.1.15,2013-02-22 10:27:00,
2013-02-22 02:32:00,34.9,32.5,30.15,N/A,-737280,0.0,-999.0,91,0.00,,,0.00,Wunderground v.1.15,2013-02-22 10:32:00,
2013-02-22 02:37:00,34.9,32.5,30.15,N/A,-737280,0.0,-999.0,91,0.00,,,0.00,Wunderground v.1.15,2013-02-22 10:37:00,
2013-02-22 02:42:00,34.9,32.5,30.15,N/A,-737280,0.0,-999.0,91,0.00,,,0.00,Wunderground v.1.15,2013-02-22 10:42:00,
2013-02-22 02:47:00,35.7,33.6,30.15,N/A,-737280,0.0,-999.0,92,0.00,,,0.00,Wunderground v.1.15,2013-02-22 10:47:00,
2013-02-22 02:52:00,35.7,33.6,30.15,N/A,-737280,0.0,-999.0,92,0.00,,,0.00,Wunderground v.1.15,2013-02-22 10:52:00,
2013-02-22 02:57:00,35.7,33.6,30.15,N/A,-737280,0.0,-999.0,92,0.00,,,0.00,Wunderground v.1.15,2013-02-22 10:57:00,
2013-02-22 03:02:00,35.7,33.6,30.15,N/A,-737280,0.0,-999.0,92,0.00,,,0.00,Wunderground v.1.15,2013-02-22 11:02:00,
2013-02-22 03:07:00,35.7,33.6,30.15,N/A,-737280,0.0,-999.0,92,0.00,,,0.00,Wunderground v.1.15,2013-02-22 11:07:00,
2013-02-22 03:12:00,35.7,33.6,30.15,N/A,-737280,0.0,-999.0,92,0.00,,,0.00,Wunderground v.1.15,2013-02-22 11:12:00,
2013-02-22 03:17:00,35.0,32.4,30.15,N/A,-737280,0.0,-999.0,90,0.00,,,0.00,Wunderground v.1.15,2013-02-22 11:17:00,
2013-02-22 03:22:00,35.0,32.4,30.15,N/A,-737280,0.0,-999.0,90,0.00,,,0.00,Wunderground v.1.15,2013-02-22 11:22:00,
2013-02-22 03:27:00,35.0,32.4,30.15,N/A,-737280,0.0,-999.0,90,0.00,,,0.00,Wunderground v.1.15,2013-02-22 11:27:00,
2013-02-22 03:32:00,35.0,32.4,30.15,N/A,-737280,0.0,-999.0,90,0.00,,,0.00,Wunderground v.1.15,2013-02-22 11:32:00,
2013-02-22 03:37:00,35.0,32.4,30.15,N/A,-737280,0.0,-999.0,90,0.00,,,0.00,Wunderground v.1.15,2013-02-22 11:37:00,
2013-02-22 03:42:00,35.0,32.4,30.15,N/A,-737280,0.0,-999.0,90,0.00,,,0.00,Wunderground v.1.15,2013-02-22 11:42:00,
2013-02-22 03:47:00,34.6,32.5,30.15,N/A,-737280,0.0,-999.0,92,0.00,,,0.00,Wunderground v.1.15,2013-02-22 11:47:00,
2013-02-22 03:52:00,34.6,32.5,30.15,N/A,-737280,0.0,-999.0,92,0.00,,,0.00,Wunderground v.1.15,2013-02-22 11:52:00,
2013-02-22 03:58:00,34.6,32.5,30.15,SSE,148,0.0,11.0,92,0.00,,,0.00,Wunderground v.1.15,2013-02-22 11:58:00,
2013-02-22 04:00:00,34.6,32.5,30.15,SSE,148,0.0,0.0,92,0.00,,,0.00,Wunderground v.1.15,2013-02-22 12:00:00,
2013-02-22 04:02:00,34.6,32.5,30.15,SSE,149,0.0,0.0,92,0.00,,,0.00,Wunderground v.1.15,2013-02-22 12:02:00,
2013-02-22 04:04:00,34.7,32.6,30.15,SSE,149,0.0,0.0,92,0.00,,,0.00,Wunderground v.1.15,2013-02-22 12:04:00,
2013-02-22 04:10:00,35.0,32.6,30.15,SSE,149,0.0,0.0,91,0.00,,,0.00,Wunderground v.1.15,2013-02-22 12:10:00,
2013-02-22 04:16:00,34.8,32.4,30.15,SSE,150,0.0,0.0,91,0.00,,,0.00,Wunderground v.1.15,2013-02-22 12:16:00,
2013-02-22 04:22:00,34.5,32.1,30.15,SSE,149,0.0,0.0,91,0.00,,,0.00,Wunderground v.1.15,2013-02-22 12:22:00,
2013-02-22 04:28:00,34.4,32.0,30.16,SSE,149,0.0,0.0,91,0.00,,,0.00,Wunderground v.1.15,2013-02-22 12:28:00,
2013-02-22 04:34:00,34.0,31.6,30.16,SSE,149,0.0,0.0,91,0.00,,,0.00,Wunderground v.1.15,2013-02-22 12:34:00,
2013-02-22 04:40:00,33.9,31.6,30.16,SSE,149,0.0,0.0,91,0.00,,,0.00,Wunderground v.1.15,2013-02-22 12:40:00,
2013-02-22 04:46:00,34.1,32.0,30.16,SSE,149,0.0,0.0,92,0.00,,,0.00,Wunderground v.1.15,2013-02-22 12:46:00,
2013-02-22 04:52:00,35.0,32.9,30.16,SSE,150,0.0,0.0,92,0.00,,,0.00,Wunderground v.1.15,2013-02-22 12:52:00,
2013-02-22 04:58:00,35.6,33.2,30.16,SSE,150,0.0,0.0,91,0.00,,,0.00,Wunderground v.1.15,2013-02-22 12:58:00,
2013-02-22 05:04:00,35.4,32.8,30.16,SSE,150,0.0,0.0,90,0.00,,,0.00,Wunderground v.1.15,2013-02-22 13:04:00,
2013-02-22 05:10:00,34.8,32.2,30.16,SSE,150,0.0,0.0,90,0.00,,,0.00,Wunderground v.1.15,2013-02-22 13:10:00,
2013-02-22 05:16:00,34.5,31.6,30.17,SSE,150,0.0,0.0,89,0.00,,,0.00,Wunderground v.1.15,2013-02-22 13:16:00,
2013-02-22 05:22:00,34.1,31.5,30.17,SSE,149,0.0,0.0,90,0.00,,,0.00,Wunderground v.1.15,2013-02-22 13:22:00,
2013-02-22 05:28:00,33.7,31.1,30.16,SSE,149,0.0,0.0,90,0.00,,,0.00,Wunderground v.1.15,2013-02-22 13:28:00,
2013-02-22 05:34:00,33.5,30.9,30.17,SSE,156,0.0,2.0,90,0.00,,,0.00,Wunderground v.1.15,2013-02-22 13:34:00,
2013-02-22 05:40:00,33.6,31.3,30.16,SE,142,0.0,2.0,91,0.00,,,0.00,Wunderground v.1.15,2013-02-22 13:40:00,
2013-02-22 05:46:00,33.6,31.0,30.16,SE,142,0.0,2.0,90,0.00,,,0.00,Wunderground v.1.15,2013-02-22 13:46:00,
2013-02-22 05:52:00,33.4,31.1,30.17,SW,225,0.0,2.0,91,0.00,,,0.00,Wunderground v.1.15,2013-02-22 13:52:00,
2013-02-22 05:58:00,33.3,31.0,30.17,SSW,193,0.0,2.0,91,0.00,,,0.00,Wunderground v.1.15,2013-02-22 13:58:00,
2013-02-22 06:04:00,33.3,31.0,30.17,SSE,166,0.0,0.0,91,0.00,,,0.00,Wunderground v.1.15,2013-02-22 14:04:00,
2013-02-22 06:10:00,33.2,30.9,30.17,SSE,150,0.0,0.0,91,0.00,,,0.00,Wunderground v.1.15,2013-02-22 14:10:00,
2013-02-22 06:16:00,33.2,30.6,30.17,SSE,163,0.0,0.0,90,0.00,,,0.00,Wunderground v.1.15,2013-02-22 14:16:00,
2013-02-22 06:22:00,33.0,30.7,30.17,SSE,168,0.0,0.0,91,0.00,,,0.00,Wunderground v.1.15,2013-02-22 14:22:00,
2013-02-22 06:28:00,33.6,31.5,30.17,SE,142,0.0,0.0,92,0.00,,,0.00,Wunderground v.1.15,2013-02-22 14:28:00,
2013-02-22 06:34:00,33.4,30.8,30.18,SE,142,0.0,0.0,90,0.00,,,0.00,Wunderground v.1.15,2013-02-22 14:34:00,
2013-02-22 06:40:00,33.1,30.5,30.18,SE,142,0.0,0.0,90,0.00,,,0.00,Wunderground v.1.15,2013-02-22 14:40:00,
2013-02-22 06:46:00,33.0,30.7,30.18,SSE,153,0.0,0.0,91,0.00,,,0.00,Wunderground v.1.15,2013-02-22 14:46:00,
2013-02-22 06:52:00,33.1,30.8,30.18,SSE,153,0.0,0.0,91,0.00,,,0.00,Wunderground v.1.15,2013-02-22 14:52:00,
2013-02-22 06:58:00,33.1,30.8,30.19,SSE,153,0.0,0.0,91,0.00,,,0.00,Wunderground v.1.15,2013-02-22 14:58:00,
2013-02-22 07:04:00,33.0,30.4,30.19,SSE,153,0.0,0.0,90,0.00,,,0.00,Wunderground v.1.15,2013-02-22 15:04:00,
2013-02-22 07:10:00,32.9,30.6,30.19,SSE,153,0.0,0.0,91,0.00,,,0.00,Wunderground v.1.15,2013-02-22 15:10:00,
2013-02-22 07:16:00,33.0,30.7,30.19,SSE,153,0.0,0.0,91,0.00,,,0.00,Wunderground v.1.15,2013-02-22 15:16:00,
2013-02-22 07:22:00,33.1,30.8,30.20,SSE,153,0.0,0.0,91,0.00,,,0.00,Wunderground v.1.15,2013-02-22 15:22:00,
2013-02-22 07:28:00,33.4,31.3,30.20,SSE,153,0.0,0.0,92,0.00,,,0.00,Wunderground v.1.15,2013-02-22 15:28:00,
2013-02-22 07:34:00,34.3,32.2,30.20,SE,139,0.0,3.0,92,0.00,,,0.00,Wunderground v.1.15,2013-02-22 15:34:00,
2013-02-22 07:40:00,35.4,33.3,30.20,SSE,153,0.0,3.0,92,0.00,,,0.00,Wunderground v.1.15,2013-02-22 15:40:00,
2013-02-22 07:46:00,36.5,34.1,30.21,SSE,149,0.0,3.0,91,0.00,,,0.00,Wunderground v.1.15,2013-02-22 15:46:00,
2013-02-22 07:52:00,37.5,34.3,30.21,SSE,150,0.0,3.0,88,0.00,,,0.00,Wunderground v.1.15,2013-02-22 15:52:00,
2013-02-22 07:58:00,37.7,34.2,30.21,SSE,149,0.0,3.0,87,0.00,,,0.00,Wunderground v.1.15,2013-02-22 15:58:00,
2013-02-22 08:04:00,38.1,34.3,30.22,SSE,149,0.0,0.0,86,0.00,,,0.00,Wunderground v.1.15,2013-02-22 16:04:00,
2013-02-22 08:17:00,39.6,34.9,30.21,SSE,150,0.0,0.0,83,0.00,,,0.00,Wunderground v.1.15,2013-02-22 16:17:00,
2013-02-22 08:24:00,40.6,35.5,30.22,SSE,149,0.0,0.0,82,0.00,,,0.00,Wunderground v.1.15,2013-02-22 16:24:00,
2013-02-22 08:30:00,41.5,36.4,30.22,SSE,150,0.0,0.0,82,0.00,,,0.00,Wunderground v.1.15,2013-02-22 16:30:00,
2013-02-22 08:36:00,42.6,37.5,30.22,SSE,149,0.0,0.0,82,0.00,,,0.00,Wunderground v.1.15,2013-02-22 16:36:00,
2013-02-22 08:42:00,44.1,38.6,30.23,SSE,150,0.0,0.0,81,0.00,,,0.00,Wunderground v.1.15,2013-02-22 16:42:00,
2013-02-22 08:48:00,45.9,39.1,30.23,SSE,149,0.0,0.0,77,0.00,,,0.00,Wunderground v.1.15,2013-02-22 16:48:00,
2013-02-22 08:54:00,47.4,39.5,30.23,SSE,149,0.0,0.0,74,0.00,,,0.00,Wunderground v.1.15,2013-02-22 16:54:00,
2013-02-22 09:00:00,48.5,39.2,30.23,NNE,17,0.0,0.0,70,0.00,,,0.00,Wunderground v.1.15,2013-02-22 17:00:00,
2013-02-22 09:06:00,49.7,37.6,30.23,North,5,0.0,0.0,63,0.00,,,0.00,Wunderground v.1.15,2013-02-22 17:06:00,
2013-02-22 09:12:00,50.9,37.9,30.22,North,5,0.0,0.0,61,0.00,,,0.00,Wunderground v.1.15,2013-02-22 17:12:00,
2013-02-22 09:18:00,52.5,38.1,30.22,North,5,0.0,0.0,58,0.00,,,0.00,Wunderground v.1.15,2013-02-22 17:18:00,
2013-02-22 09:24:00,53.6,37.8,30.22,North,349,0.0,0.0,55,0.00,,,0.00,Wunderground v.1.15,2013-02-22 17:24:00,
2013-02-22 09:30:00,54.1,35.3,30.23,NNE,15,0.0,0.0,49,0.00,,,0.00,Wunderground v.1.15,2013-02-22 17:30:00,
2013-02-22 09:36:00,55.0,35.1,30.23,North,353,0.0,0.0,47,0.00,,,0.00,Wunderground v.1.15,2013-02-22 17:36:00,
2013-02-22 09:42:00,56.0,36.0,30.23,NNW,334,0.0,0.0,47,0.00,,,0.00,Wunderground v.1.15,2013-02-22 17:42:00,
2013-02-22 09:48:00,56.6,35.5,30.22,NNE,27,0.0,0.0,45,0.00,,,0.00,Wunderground v.1.15,2013-02-22 17:48:00,
2013-02-22 09:56:00,57.7,37.6,30.22,ENE,67,0.0,0.0,47,0.00,,,0.00,Wunderground v.1.15,2013-02-22 17:56:00,